Wetterdaten: Woche 05.04.10 - 11.04.10 (KW14)
Datum Zeit Temp. A. Feuchte A. Luftdruck Regen Wind Richtung Taupunkt Windchill Windben
05.04.2010 00:00 9,8 C 68 % 1015,9 hPa 0,0 l/m 12,9 km/h SW 4,0 C 5,9 C 33,8 km/h
05.04.2010 01:00 9,1 C 70 % 1016,8 hPa 0,0 l/m 9,4 km/h W 3,8 C 7,0 C 25,4 km/h
05.04.2010 02:00 8,6 C 73 % 1017,4 hPa 0,0 l/m 4,4 km/h S-SW 3,9 C 8,6 C 21,7 km/h
05.04.2010 03:00 8,0 C 76 % 1017,7 hPa 0,0 l/m 5,5 km/h NW 4,1 C 7,8 C 16,9 km/h
05.04.2010 04:00 7,4 C 82 % 1017,7 hPa 0,0 l/m 5,1 km/h NW 4,4 C 7,2 C 13,7 km/h
05.04.2010 05:00 7,3 C 82 % 1017,7 hPa 0,3 l/m 5,0 km/h NW 4,3 C 7,3 C 15,7 km/h
05.04.2010 06:00 7,2 C 85 % 1018,0 hPa 0,5 l/m 4,7 km/h NW 4,8 C 7,2 C 12,9 km/h
05.04.2010 07:00 7,2 C 86 % 1018,5 hPa 0,5 l/m 4,2 km/h NW 5,1 C 7,2 C 9,3 km/h
05.04.2010 08:00 7,4 C 87 % 1019,0 hPa 0,5 l/m 4,9 km/h NW 5,4 C 7,4 C 12,9 km/h
05.04.2010 09:00 7,7 C 86 % 1019,3 hPa 0,5 l/m 7,2 km/h N 5,5 C 7,1 C 21,3 km/h
05.04.2010 10:00 8,3 C 84 % 1019,6 hPa 0,3 l/m 8,4 km/h NW 5,7 C 6,8 C 20,1 km/h
05.04.2010 11:00 8,8 C 80 % 1019,9 hPa 0,0 l/m 10,6 km/h N-NW 5,5 C 5,9 C 23,3 km/h
05.04.2010 12:00 8,9 C 79 % 1020,3 hPa 0,0 l/m 10,0 km/h NW 5,4 C 6,4 C 24,1 km/h
05.04.2010 13:00 8,6 C 79 % 1020,7 hPa 0,5 l/m 10,8 km/h N-NW 5,1 C 5,6 C 27,8 km/h
05.04.2010 14:00 8,9 C 76 % 1020,9 hPa 0,0 l/m 12,7 km/h N-NW 4,8 C 5,0 C 26,1 km/h
05.04.2010 15:00 9,7 C 72 % 1020,8 hPa 0,3 l/m 10,5 km/h NW 5,0 C 7,0 C 23,3 km/h
05.04.2010 16:00 10,0 C 69 % 1020,9 hPa 0,0 l/m 11,8 km/h NW 4,5 C 6,5 C 26,9 km/h
05.04.2010 17:00 9,2 C 73 % 1021,5 hPa 0,0 l/m 11,1 km/h NW 4,7 C 6,1 C 30,2 km/h
05.04.2010 18:00 9,2 C 70 % 1021,9 hPa 0,0 l/m 11,5 km/h NW 4,1 C 5,9 C 26,1 km/h
05.04.2010 19:00 9,0 C 69 % 1022,8 hPa 0,0 l/m 11,0 km/h W-NW 3,7 C 5,9 C 31,4 km/h
05.04.2010 20:00 8,9 C 69 % 1023,5 hPa 0,0 l/m 11,5 km/h NW 3,5 C 5,5 C 28,2 km/h
05.04.2010 21:00 9,0 C 66 % 1024,2 hPa 0,0 l/m 12,1 km/h NW 2,9 C 5,3 C 27,8 km/h
05.04.2010 22:00 8,8 C 66 % 1024,6 hPa 0,0 l/m 11,3 km/h NW 2,8 C 5,5 C 25,7 km/h
05.04.2010 23:00 8,6 C 66 % 1024,9 hPa 0,0 l/m 10,9 km/h NW 2,6 C 5,5 C 24,1 km/h
06.04.2010 00:00 8,3 C 66 % 1025,3 hPa 0,0 l/m 10,6 km/h N-NW 2,4 C 5,4 C 23,7 km/h
06.04.2010 01:00 7,8 C 66 % 1025,5 hPa 0,0 l/m 11,4 km/h NW 1,9 C 4,3 C 27,4 km/h
06.04.2010 02:00 7,2 C 68 % 1025,7 hPa 0,0 l/m 8,2 km/h W-NW 1,6 C 5,8 C 21,3 km/h
06.04.2010 03:00 6,8 C 68 % 1025,7 hPa 0,0 l/m 7,5 km/h NW 1,2 C 5,6 C 18,1 km/h
06.04.2010 04:00 6,4 C 67 % 1025,8 hPa 0,0 l/m 7,7 km/h NW 0,7 C 5,3 C 18,9 km/h
06.04.2010 05:00 6,0 C 68 % 1025,9 hPa 0,0 l/m 5,6 km/h NW 0,5 C 6,0 C 16,9 km/h
06.04.2010 06:00 5,4 C 70 % 1026,1 hPa 0,0 l/m 5,0 km/h NW 0,4 C 5,4 C 14,5 km/h
06.04.2010 07:00 5,8 C 69 % 1026,6 hPa 0,0 l/m 5,3 km/h W 0,6 C 5,6 C 14,5 km/h
06.04.2010 08:00 6,9 C 67 % 1027,0 hPa 0,0 l/m 10,5 km/h N 1,1 C 3,9 C 24,5 km/h
06.04.2010 09:00 7,6 C 65 % 1027,1 hPa 0,0 l/m 10,9 km/h NW 1,3 C 4,4 C 24,9 km/h
06.04.2010 10:00 9,0 C 59 % 1026,9 hPa 0,0 l/m 11,8 km/h N-NW 1,4 C 5,5 C 27,4 km/h
06.04.2010 11:00 10,2 C 55 % 1026,3 hPa 0,0 l/m 13,4 km/h NW 1,5 C 6,1 C 26,5 km/h
06.04.2010 12:00 10,9 C 50 % 1025,8 hPa 0,0 l/m 13,3 km/h N-NW 0,8 C 7,0 C 26,5 km/h
06.04.2010 13:00 11,6 C 47 % 1025,4 hPa 0,0 l/m 12,1 km/h N-NW 0,6 C 8,3 C 24,9 km/h
06.04.2010 14:00 12,3 C 46 % 1024,9 hPa 0,0 l/m 11,6 km/h N-NW 1,0 C 9,4 C 24,9 km/h
06.04.2010 15:00 12,6 C 45 % 1024,5 hPa 0,0 l/m 10,8 km/h N-NO 0,9 C 10,1 C 24,1 km/h
06.04.2010 16:00 12,7 C 43 % 1024,1 hPa 0,0 l/m 9,7 km/h NW 0,4 C 10,8 C 20,9 km/h
06.04.2010 17:00 12,7 C 41 % 1024,1 hPa 0,0 l/m 8,8 km/h N-NO -0,2 C 11,2 C 20,5 km/h
06.04.2010 18:00 12,2 C 41 % 1024,0 hPa 0,0 l/m 7,2 km/h NW -0,6 C 11,5 C 18,5 km/h
06.04.2010 19:00 10,9 C 45 % 1024,2 hPa 0,0 l/m 3,1 km/h N-NW -0,6 C 10,9 C 8,4 km/h
06.04.2010 20:00 8,6 C 53 % 1024,5 hPa 0,0 l/m 0,2 km/h O -0,6 C 8,6 C 1,6 km/h
06.04.2010 21:00 7,3 C 64 % 1025,3 hPa 0,0 l/m 2,5 km/h NO 1,0 C 7,3 C 7,2 km/h
06.04.2010 22:00 6,8 C 65 % 1025,7 hPa 0,0 l/m 0,7 km/h N-NO 0,6 C 6,8 C 5,2 km/h
06.04.2010 23:00 5,0 C 71 % 1025,8 hPa 0,0 l/m 0,2 km/h N 0,2 C 5,0 C 2,4 km/h
07.04.2010 00:00 3,8 C 75 % 1025,9 hPa 0,0 l/m 0,1 km/h N -0,3 C 3,8 C 2,0 km/h
07.04.2010 01:00 3,3 C 76 % 1025,6 hPa 0,0 l/m 0,5 km/h SW -0,6 C 3,3 C 2,8 km/h
07.04.2010 02:00 2,9 C 77 % 1025,3 hPa 0,0 l/m 0,6 km/h SW -0,7 C 2,9 C 5,6 km/h
07.04.2010 03:00 2,5 C 78 % 1024,8 hPa 0,0 l/m 0,5 km/h N -1,0 C 2,5 C 4,0 km/h
07.04.2010 04:00 1,6 C 80 % 1024,6 hPa 0,0 l/m 0,2 km/h N -1,5 C 1,6 C 2,4 km/h
07.04.2010 05:00 1,3 C 81 % 1024,4 hPa 0,0 l/m 0,2 km/h N -1,6 C 1,3 C 2,8 km/h
07.04.2010 06:00 1,1 C 83 % 1024,4 hPa 0,0 l/m 0,2 km/h N -1,5 C 1,1 C 2,8 km/h
07.04.2010 07:00 2,5 C 80 % 1024,6 hPa 0,0 l/m 0,6 km/h N -0,6 C 2,5 C 4,8 km/h
07.04.2010 08:00 5,7 C 71 % 1024,8 hPa 0,0 l/m 1,0 km/h N-NO 0,9 C 5,7 C 4,8 km/h
07.04.2010 09:00 7,4 C 66 % 1024,7 hPa 0,0 l/m 2,6 km/h NW 1,5 C 7,4 C 9,3 km/h
07.04.2010 10:00 9,0 C 63 % 1024,5 hPa 0,0 l/m 2,8 km/h N-NO 2,4 C 9,0 C 7,6 km/h
07.04.2010 11:00 10,4 C 59 % 1024,2 hPa 0,0 l/m 3,0 km/h NO 2,8 C 10,4 C 8,8 km/h
07.04.2010 12:00 11,7 C 56 % 1023,8 hPa 0,0 l/m 3,9 km/h NO 3,2 C 11,7 C 10,9 km/h
07.04.2010 13:00 12,7 C 54 % 1023,2 hPa 0,0 l/m 5,3 km/h NO 3,7 C 12,7 C 11,7 km/h
07.04.2010 14:00 13,7 C 53 % 1022,8 hPa 0,0 l/m 4,4 km/h NO 4,2 C 13,7 C 11,3 km/h
07.04.2010 15:00 14,3 C 49 % 1022,4 hPa 0,0 l/m 3,8 km/h O-NO 3,6 C 14,3 C 10,9 km/h
07.04.2010 16:00 14,6 C 47 % 1022,1 hPa 0,0 l/m 3,6 km/h O-SO 3,4 C 14,6 C 10,1 km/h
07.04.2010 17:00 14,4 C 48 % 1021,9 hPa 0,0 l/m 2,7 km/h O 3,5 C 14,4 C 8,0 km/h
07.04.2010 18:00 13,5 C 47 % 1021,9 hPa 0,0 l/m 2,5 km/h O 2,5 C 13,5 C 6,0 km/h
07.04.2010 19:00 11,5 C 55 % 1022,0 hPa 0,0 l/m 0,3 km/h N 2,7 C 11,5 C 2,8 km/h
07.04.2010 20:00 7,6 C 70 % 1022,4 hPa 0,0 l/m 0,0 km/h N 2,4 C 7,6 C 0,0 km/h
07.04.2010 21:00 6,1 C 75 % 1022,6 hPa 0,0 l/m 0,0 km/h N 1,9 C 6,1 C 0,4 km/h
07.04.2010 22:00 4,4 C 81 % 1022,9 hPa 0,0 l/m 0,0 km/h N 1,5 C 4,4 C 0,0 km/h
07.04.2010 23:00 3,5 C 83 % 1022,9 hPa 0,0 l/m 0,0 km/h N 0,9 C 3,5 C 0,0 km/h
08.04.2010 00:00 2,6 C 86 % 1022,8 hPa 0,0 l/m 0,0 km/h N 0,4 C 2,6 C 0,0 km/h
08.04.2010 01:00 1,5 C 88 % 1022,6 hPa 0,0 l/m 0,0 km/h N -0,2 C 1,5 C 0,0 km/h
08.04.2010 02:00 1,0 C 89 % 1022,4 hPa 0,0 l/m 0,0 km/h N -0,5 C 1,0 C 0,0 km/h
08.04.2010 03:00 0,5 C 90 % 1022,2 hPa 0,0 l/m 0,0 km/h N -1,0 C 0,5 C 0,0 km/h
08.04.2010 04:00 0,1 C 90 % 1022,2 hPa 0,0 l/m 0,0 km/h N -1,4 C 0,1 C 0,4 km/h
08.04.2010 05:00 -0,3 C 90 % 1022,4 hPa 0,0 l/m 0,0 km/h N -1,7 C -0,3 C 0,4 km/h
08.04.2010 06:00 -0,4 C 91 % 1022,7 hPa 0,0 l/m 0,0 km/h N -1,6 C -0,4 C 0,8 km/h
08.04.2010 07:00 1,6 C 91 % 1023,1 hPa 0,0 l/m 0,0 km/h N 0,3 C 1,6 C 0,4 km/h
08.04.2010 08:00 6,5 C 81 % 1023,1 hPa 0,0 l/m 0,9 km/h O 3,5 C 6,5 C 3,6 km/h
08.04.2010 09:00 9,3 C 72 % 1023,1 hPa 0,0 l/m 0,7 km/h O 4,4 C 9,3 C 4,4 km/h
08.04.2010 10:00 13,4 C 61 % 1022,8 hPa 0,0 l/m 4,2 km/h O 6,0 C 13,4 C 13,3 km/h
08.04.2010 11:00 15,8 C 51 % 1022,7 hPa 0,0 l/m 4,5 km/h SO 5,6 C 15,8 C 14,5 km/h
08.04.2010 12:00 16,9 C 47 % 1022,5 hPa 0,0 l/m 4,7 km/h S-SO 5,4 C 16,9 C 19,7 km/h
08.04.2010 13:00 18,1 C 43 % 1022,1 hPa 0,0 l/m 4,2 km/h SO 5,4 C 18,1 C 14,5 km/h
08.04.2010 14:00 18,8 C 42 % 1021,8 hPa 0,0 l/m 5,2 km/h O 5,6 C 18,7 C 14,5 km/h
08.04.2010 15:00 18,3 C 44 % 1021,4 hPa 0,0 l/m 6,4 km/h O 5,9 C 18,1 C 16,9 km/h
08.04.2010 16:00 18,3 C 45 % 1021,3 hPa 0,0 l/m 5,8 km/h S-SO 6,0 C 18,3 C 17,7 km/h
08.04.2010 17:00 17,6 C 45 % 1021,3 hPa 0,0 l/m 5,2 km/h O-SO 5,5 C 17,6 C 15,7 km/h
08.04.2010 18:00 16,8 C 47 % 1021,8 hPa 0,0 l/m 3,7 km/h O 5,4 C 16,8 C 12,5 km/h
08.04.2010 19:00 15,1 C 52 % 1022,2 hPa 0,0 l/m 0,7 km/h O-SO 5,1 C 15,1 C 4,4 km/h
08.04.2010 20:00 11,5 C 63 % 1022,7 hPa 0,0 l/m 0,0 km/h N 4,6 C 11,5 C 0,0 km/h
08.04.2010 21:00 8,6 C 74 % 1023,2 hPa 0,0 l/m 0,0 km/h N 4,1 C 8,6 C 0,0 km/h
08.04.2010 22:00 7,2 C 79 % 1023,3 hPa 0,0 l/m 0,0 km/h N 3,7 C 7,2 C 0,0 km/h
08.04.2010 23:00 6,1 C 82 % 1023,5 hPa 0,0 l/m 0,0 km/h N 3,3 C 6,1 C 0,4 km/h
09.04.2010 00:00 5,3 C 84 % 1023,7 hPa 0,0 l/m 0,0 km/h N 2,9 C 5,3 C 0,0 km/h
09.04.2010 01:00 5,3 C 84 % 1023,8 hPa 0,0 l/m 0,0 km/h N 2,8 C 5,3 C 0,0 km/h
09.04.2010 02:00 5,0 C 86 % 1023,9 hPa 0,0 l/m 0,0 km/h N 2,8 C 5,0 C 0,0 km/h
09.04.2010 03:00 4,8 C 86 % 1023,9 hPa 0,0 l/m 0,0 km/h N 2,6 C 4,8 C 0,0 km/h
09.04.2010 04:00 4,2 C 86 % 1024,1 hPa 0,0 l/m 0,0 km/h N 2,1 C 4,2 C 0,0 km/h
09.04.2010 05:00 3,5 C 89 % 1024,4 hPa 0,0 l/m 0,0 km/h N 1,8 C 3,5 C 0,0 km/h
09.04.2010 06:00 4,0 C 89 % 1024,8 hPa 0,0 l/m 0,0 km/h N 2,3 C 4,0 C 0,4 km/h
09.04.2010 07:00 5,4 C 88 % 1025,2 hPa 0,0 l/m 0,0 km/h N 3,6 C 5,4 C 1,6 km/h
09.04.2010 08:00 11,3 C 72 % 1025,4 hPa 0,0 l/m 1,3 km/h O-SO 6,2 C 11,3 C 6,0 km/h
09.04.2010 09:00 14,2 C 55 % 1025,5 hPa 0,0 l/m 5,4 km/h NW 5,3 C 14,2 C 14,5 km/h
09.04.2010 10:00 15,8 C 52 % 1025,7 hPa 0,0 l/m 5,9 km/h NW 5,9 C 15,7 C 15,3 km/h
09.04.2010 11:00 17,6 C 47 % 1025,6 hPa 0,0 l/m 5,0 km/h NW 6,0 C 17,6 C 14,5 km/h
09.04.2010 12:00 18,0 C 45 % 1025,3 hPa 0,0 l/m 4,9 km/h NW 6,0 C 18,0 C 14,9 km/h
09.04.2010 13:00 18,0 C 43 % 1025,0 hPa 0,0 l/m 6,7 km/h N-NO 5,1 C 17,7 C 17,7 km/h
09.04.2010 14:00 18,3 C 40 % 1024,5 hPa 0,0 l/m 7,2 km/h NW 4,3 C 17,9 C 18,9 km/h
09.04.2010 15:00 18,4 C 40 % 1024,2 hPa 0,0 l/m 7,2 km/h NW 4,3 C 18,0 C 18,5 km/h
09.04.2010 16:00 18,0 C 42 % 1024,1 hPa 0,0 l/m 8,0 km/h N-NO 4,8 C 17,2 C 18,9 km/h
09.04.2010 17:00 16,8 C 51 % 1024,0 hPa 0,0 l/m 8,1 km/h N 6,7 C 16,0 C 18,9 km/h
09.04.2010 18:00 15,4 C 58 % 1024,4 hPa 0,0 l/m 8,1 km/h N 7,1 C 14,5 C 19,3 km/h
09.04.2010 19:00 13,8 C 63 % 1024,6 hPa 0,0 l/m 5,8 km/h N-NW 6,8 C 13,7 C 15,3 km/h
09.04.2010 20:00 12,9 C 65 % 1025,3 hPa 0,0 l/m 6,1 km/h NW 6,4 C 12,6 C 14,5 km/h
09.04.2010 21:00 12,4 C 65 % 1025,7 hPa 0,0 l/m 4,8 km/h N-NW 5,9 C 12,4 C 12,9 km/h
09.04.2010 22:00 11,7 C 67 % 1025,8 hPa 0,0 l/m 2,9 km/h NW 5,7 C 11,7 C 8,8 km/h
09.04.2010 23:00 11,3 C 63 % 1026,0 hPa 0,0 l/m 7,2 km/h W-NW 4,5 C 10,7 C 17,3 km/h
10.04.2010 00:00 10,8 C 59 % 1026,1 hPa 0,0 l/m 7,3 km/h N-NW 3,0 C 10,2 C 18,1 km/h
10.04.2010 01:00 10,3 C 60 % 1026,1 hPa 0,0 l/m 6,8 km/h NW 2,9 C 10,0 C 16,1 km/h
10.04.2010 02:00 9,6 C 61 % 1025,9 hPa 0,0 l/m 5,7 km/h NW 2,4 C 9,6 C 14,5 km/h
10.04.2010 03:00 9,3 C 61 % 1025,8 hPa 0,0 l/m 5,5 km/h NW 2,1 C 9,3 C 16,9 km/h
10.04.2010 04:00 9,1 C 62 % 1025,7 hPa 0,0 l/m 3,2 km/h NW 2,2 C 9,1 C 9,3 km/h
10.04.2010 05:00 8,9 C 63 % 1025,4 hPa 0,0 l/m 2,7 km/h NW 2,2 C 8,9 C 8,0 km/h
10.04.2010 06:00 8,8 C 64 % 1025,2 hPa 0,0 l/m 2,4 km/h NW 2,3 C 8,8 C 7,2 km/h
10.04.2010 07:00 8,8 C 62 % 1025,0 hPa 0,0 l/m 3,4 km/h NW 1,9 C 8,8 C 10,9 km/h
10.04.2010 08:00 9,2 C 60 % 1024,8 hPa 0,0 l/m 3,7 km/h W-NW 1,7 C 9,2 C 10,1 km/h
10.04.2010 09:00 10,0 C 58 % 1024,3 hPa 0,0 l/m 7,4 km/h NW 2,0 C 9,3 C 17,3 km/h
10.04.2010 10:00 10,8 C 56 % 1023,9 hPa 0,0 l/m 11,7 km/h NW 2,4 C 7,6 C 26,5 km/h
10.04.2010 11:00 8,8 C 66 % 1024,3 hPa 0,0 l/m 11,0 km/h NW 2,9 C 5,8 C 25,4 km/h
10.04.2010 12:00 8,8 C 66 % 1023,7 hPa 0,0 l/m 6,2 km/h SW 2,8 C 8,6 C 16,9 km/h
10.04.2010 13:00 8,2 C 66 % 1023,0 hPa 0,0 l/m 7,8 km/h W-SW 2,2 C 7,2 C 21,7 km/h
10.04.2010 14:00 11,3 C 55 % 1021,6 hPa 0,0 l/m 9,0 km/h N-NO 2,5 C 9,7 C 24,1 km/h
10.04.2010 15:00 9,8 C 58 % 1021,2 hPa 0,0 l/m 5,2 km/h N 2,0 C 9,4 C 15,7 km/h
10.04.2010 16:00 10,7 C 50 % 1020,5 hPa 0,0 l/m 7,8 km/h N-NW 0,7 C 9,8 C 21,7 km/h
10.04.2010 17:00 10,7 C 48 % 1020,2 hPa 0,0 l/m 8,2 km/h N-NW 0,1 C 9,5 C 20,1 km/h
10.04.2010 18:00 9,0 C 59 % 1020,6 hPa 0,0 l/m 8,1 km/h N 1,4 C 7,7 C 20,1 km/h
10.04.2010 19:00 7,9 C 61 % 1020,6 hPa 0,0 l/m 6,9 km/h N-NW 0,9 C 7,1 C 20,1 km/h
10.04.2010 20:00 7,4 C 68 % 1021,1 hPa 0,0 l/m 5,9 km/h N-NW 1,7 C 7,2 C 18,1 km/h
10.04.2010 21:00 6,1 C 74 % 1021,4 hPa 0,0 l/m 5,8 km/h N 1,7 C 5,3 C 14,9 km/h
10.04.2010 22:00 5,7 C 76 % 1021,0 hPa 0,0 l/m 2,3 km/h NW 1,8 C 5,7 C 8,0 km/h
10.04.2010 23:00 5,6 C 75 % 1021,1 hPa 0,0 l/m 3,3 km/h W-NW 1,5 C 5,6 C 10,1 km/h
11.04.2010 00:00 5,4 C 75 % 1021,0 hPa 0,0 l/m 4,2 km/h NW 1,3 C 5,4 C 12,1 km/h
11.04.2010 01:00 5,4 C 75 % 1020,8 hPa 0,0 l/m 4,9 km/h NW 1,3 C 5,4 C 13,3 km/h
11.04.2010 02:00 5,4 C 76 % 1020,6 hPa 0,0 l/m 5,1 km/h N-NW 1,5 C 5,4 C 14,1 km/h
11.04.2010 03:00 5,1 C 79 % 1020,1 hPa 0,0 l/m 3,4 km/h N-NW 1,7 C 5,1 C 8,4 km/h
11.04.2010 04:00 5,0 C 78 % 1019,6 hPa 0,0 l/m 4,2 km/h NW 1,5 C 5,0 C 10,9 km/h
11.04.2010 05:00 5,1 C 78 % 1019,4 hPa 0,0 l/m 3,7 km/h NW 1,5 C 5,1 C 9,6 km/h
11.04.2010 06:00 5,1 C 76 % 1019,4 hPa 0,0 l/m 3,3 km/h NW 1,3 C 5,1 C 10,1 km/h
11.04.2010 07:00 5,3 C 77 % 1019,5 hPa 0,0 l/m 4,5 km/h NW 1,5 C 5,3 C 11,3 km/h
11.04.2010 08:00 5,5 C 77 % 1019,5 hPa 0,0 l/m 5,3 km/h N-NW 1,8 C 5,5 C 16,1 km/h
11.04.2010 09:00 5,8 C 78 % 1019,5 hPa 0,0 l/m 5,5 km/h W-NW 2,2 C 5,8 C 14,5 km/h
11.04.2010 10:00 6,8 C 76 % 1019,1 hPa 0,0 l/m 4,8 km/h NO 2,8 C 6,8 C 13,7 km/h
11.04.2010 11:00 7,6 C 71 % 1018,9 hPa 0,0 l/m 5,7 km/h N-NO 2,7 C 7,6 C 14,5 km/h
11.04.2010 12:00 8,7 C 65 % 1018,4 hPa 0,0 l/m 5,4 km/h N 2,5 C 8,7 C 14,9 km/h
11.04.2010 13:00 8,4 C 69 % 1018,0 hPa 0,3 l/m 4,7 km/h NW 3,0 C 8,4 C 13,3 km/h
11.04.2010 14:00 9,0 C 61 % 1017,4 hPa 0,0 l/m 5,4 km/h N-NW 1,9 C 9,0 C 17,7 km/h
11.04.2010 15:00 9,5 C 62 % 1017,0 hPa 0,0 l/m 5,6 km/h NO 2,6 C 9,4 C 15,3 km/h
11.04.2010 16:00 9,4 C 56 % 1016,7 hPa 0,0 l/m 7,1 km/h NO 1,2 C 9,0 C 17,3 km/h
11.04.2010 17:00 9,7 C 54 % 1016,6 hPa 0,0 l/m 8,0 km/h NO 0,8 C 8,5 C 17,3 km/h
11.04.2010 18:00 9,1 C 58 % 1016,8 hPa 0,0 l/m 6,3 km/h NO 1,3 C 9,0 C 18,1 km/h
11.04.2010 19:00 8,1 C 64 % 1017,0 hPa 0,0 l/m 5,2 km/h N-NW 1,7 C 8,1 C 13,3 km/h
11.04.2010 20:00 7,4 C 69 % 1017,4 hPa 0,0 l/m 4,2 km/h N-NO 2,1 C 7,4 C 12,1 km/h
11.04.2010 21:00 7,0 C 71 % 1017,7 hPa 0,0 l/m 4,9 km/h N-NO 2,1 C 7,0 C 15,3 km/h
11.04.2010 22:00 6,3 C 73 % 1017,8 hPa 0,0 l/m 4,1 km/h N-NW 1,8 C 6,3 C 10,5 km/h
11.04.2010 23:00 5,1 C 77 % 1017,5 hPa 0,0 l/m 1,1 km/h N 1,4 C 5,1 C 4,8 km/h
Min-Datum _ 08.04.10 09.04.10 05.04.10 - 06.04.10 - 08.04.10 08.04.10 06.04.10
_ Min-Zeit 05:30 15:45 00:00 - 20:45 - 05:15 06:30 20:45
Minimum _ -0,6 C 36 % 1015,4 hPa - 0,0 km/h - -1,8 C -0,5 C 0,0 km/h
Max-Datum _ 08.04.10 08.04.10 06.04.10 05.04.10 05.04.10 - 09.04.10 08.04.10 05.04.10
_ Max-Zeit 14:30 05:30 08:30 06:15 00:00 - 18:00 14:30 19:15
Maximum _ 19,2 C 91 % 1027,1 hPa 0,5 l/m 15,5 km/h
SW
- 7,5 C 18,9 C 41,8 km/h
NW
Durchschnitt _ 8,8 C 67 % 1022,6 hPa #3,6 l/m 5,1 km/h NW 2,6 C 8,1 C 13,3 km/h